Terminal Aerodrome Forecast
Issued by NWS

Home | Current Version | Previous Version | Text Only | Print | Product List | Glossary On
Versions: 1 2 3 4 5 6 7 8 9 10 11 12 13 14
000
FTUS43 KDTX 231100
TAFMBS
TAF
KMBS 231123Z 2312/2412 35011KT P6SM SCT018 OVC026
     FM231400 01014KT P6SM BKN030 OVC045
     FM231700 04015KT P6SM BKN060
     FM232200 04010KT P6SM SCT060
     FM240200 02005KT P6SM SKC=

USA.gov is the U.S. government's official web portal to all federal, state and local government web resources and services.